createdAt,value
2018-07-08T00:00:23.527Z,14.91
2018-07-08T00:01:23.544Z,14.90
2018-07-08T00:02:26.022Z,14.91
2018-07-08T00:03:30.958Z,14.91
2018-07-08T00:04:45.995Z,14.78
2018-07-08T00:05:24.026Z,14.79
2018-07-08T00:07:55.778Z,14.79
2018-07-08T00:09:16.790Z,14.80
2018-07-08T00:10:16.786Z,14.86
2018-07-08T00:14:00.214Z,14.80
2018-07-08T00:15:21.224Z,14.80
2018-07-08T00:16:00.221Z,14.74
2018-07-08T00:18:31.234Z,14.72
2018-07-08T00:19:31.978Z,14.64
2018-07-08T00:20:31.453Z,14.66
2018-07-08T00:23:32.201Z,14.63
2018-07-08T00:24:04.216Z,14.66
2018-07-08T00:26:42.391Z,14.61
2018-07-08T00:27:37.394Z,14.63
2018-07-08T00:28:36.399Z,14.53
2018-07-08T00:29:57.871Z,14.59
2018-07-08T00:30:57.098Z,14.54
2018-07-08T00:31:36.197Z,14.57
2018-07-08T00:32:36.898Z,14.53
2018-07-08T00:33:57.898Z,14.59
2018-07-08T00:34:37.401Z,14.49
2018-07-08T00:35:40.330Z,14.54
2018-07-08T00:36:37.398Z,14.44
2018-07-08T00:37:37.398Z,14.54
2018-07-08T00:38:37.909Z,14.46
2018-07-08T00:39:38.935Z,14.57
2018-07-08T00:40:37.898Z,14.49
2018-07-08T00:41:37.898Z,14.44
2018-07-08T00:42:37.523Z,14.52
2018-07-08T00:43:59.397Z,14.53
2018-07-08T00:44:38.400Z,14.48
2018-07-08T00:45:38.401Z,14.49
2018-07-08T00:48:31.135Z,14.45
2018-07-08T00:49:10.144Z,14.35
2018-07-08T00:50:31.139Z,14.42
2018-07-08T00:54:14.784Z,14.49
2018-07-08T00:56:44.782Z,14.45
2018-07-08T00:58:05.788Z,14.44
2018-07-08T00:58:44.783Z,14.36
2018-07-08T00:59:45.280Z,14.34
2018-07-08T01:02:16.650Z,14.27
2018-07-08T01:03:30.655Z,14.31
2018-07-08T01:05:49.738Z,14.26
2018-07-08T01:06:48.283Z,14.21
2018-07-08T01:07:48.285Z,14.27
2018-07-08T01:08:48.865Z,14.29
2018-07-08T01:10:11.785Z,14.24
2018-07-08T01:10:48.803Z,14.30
2018-07-08T01:11:49.283Z,14.23
2018-07-08T01:12:50.726Z,14.19
2018-07-08T01:13:50.738Z,14.29
2018-07-08T01:14:50.744Z,14.27
2018-07-08T01:15:49.283Z,14.26
2018-07-08T01:17:03.786Z,14.29
2018-07-08T01:17:49.793Z,14.20
2018-07-08T01:20:21.271Z,14.05
2018-07-08T01:21:21.278Z,14.04
2018-07-08T01:22:21.278Z,13.93
2018-07-08T01:23:23.824Z,13.93
2018-07-08T01:24:42.778Z,13.91
2018-07-08T01:25:21.779Z,13.79
2018-07-08T01:26:21.778Z,13.91
2018-07-08T01:27:21.392Z,13.86
2018-07-08T01:28:45.286Z,13.90
2018-07-08T01:29:22.279Z,13.80
2018-07-08T01:30:21.747Z,13.80
2018-07-08T01:31:22.778Z,13.83
2018-07-08T01:33:56.151Z,13.93
2018-07-08T01:34:54.151Z,13.83
2018-07-08T01:35:53.626Z,13.87
2018-07-08T01:37:21.652Z,13.86
2018-07-08T01:38:00.651Z,13.84
2018-07-08T01:40:28.631Z,13.88
2018-07-08T01:41:27.650Z,13.84
2018-07-08T01:42:26.198Z,13.81
2018-07-08T01:46:29.420Z,13.69
2018-07-08T01:47:29.422Z,13.69
2018-07-08T01:48:30.853Z,13.61
2018-07-08T01:49:29.918Z,13.63
2018-07-08T01:52:03.835Z,13.47
2018-07-08T01:53:23.878Z,13.28
2018-07-08T01:54:22.819Z,13.21
2018-07-08T01:55:02.759Z,13.27
2018-07-08T01:56:01.392Z,13.27
2018-07-08T01:57:04.320Z,13.31
2018-07-08T01:58:16.317Z,13.24
2018-07-08T01:59:02.319Z,13.07
2018-07-08T02:00:23.320Z,13.14
2018-07-08T02:01:04.820Z,13.14
2018-07-08T02:02:04.819Z,13.17
2018-07-08T02:03:02.816Z,13.13
2018-07-08T02:04:02.825Z,13.17
2018-07-08T02:05:18.293Z,13.07
2018-07-08T02:06:03.320Z,13.12
2018-07-08T02:07:04.300Z,13.17
2018-07-08T02:08:03.323Z,13.14
2018-07-08T02:09:05.752Z,13.16
2018-07-08T02:10:03.828Z,13.22
2018-07-08T02:14:07.008Z,13.13
2018-07-08T02:15:07.010Z,13.06
2018-07-08T02:16:09.014Z,13.12
2018-07-08T02:19:00.260Z,13.13
2018-07-08T02:19:39.260Z,13.19
2018-07-08T02:23:42.173Z,13.19
2018-07-08T02:24:42.183Z,13.24
2018-07-08T02:26:03.179Z,13.28
2018-07-08T02:26:45.680Z,13.25
2018-07-08T02:27:42.677Z,13.32
2018-07-08T02:28:42.684Z,13.31
2018-07-08T02:29:42.681Z,13.39
2018-07-08T02:32:14.429Z,13.41
2018-07-08T02:33:15.426Z,13.39
2018-07-08T02:34:14.422Z,13.47
2018-07-08T02:35:20.924Z,13.39
2018-07-08T02:36:14.925Z,13.46
2018-07-08T02:37:16.925Z,13.43
2018-07-08T02:38:17.909Z,13.46
2018-07-08T02:39:21.425Z,13.51
2018-07-08T02:40:16.419Z,13.43
2018-07-08T02:41:15.425Z,13.50
2018-07-08T02:42:15.424Z,13.51
2018-07-08T02:43:15.896Z,13.50
2018-07-08T02:44:36.929Z,13.47
2018-07-08T02:45:15.924Z,13.44
2018-07-08T02:46:15.924Z,13.51
2018-07-08T02:47:16.426Z,13.46
2018-07-08T02:48:37.427Z,13.47
2018-07-08T02:49:37.424Z,13.54
2018-07-08T02:50:16.425Z,13.50
2018-07-08T02:54:42.070Z,13.61
2018-07-08T02:55:20.606Z,13.54
2018-07-08T02:56:19.647Z,13.57
2018-07-08T03:02:16.163Z,13.66
2018-07-08T03:03:14.556Z,13.71
2018-07-08T03:03:55.230Z,13.69
2018-07-08T03:04:54.237Z,13.68
2018-07-08T03:07:47.535Z,13.61
2018-07-08T03:08:26.494Z,13.55
2018-07-08T03:09:28.409Z,13.46
2018-07-08T03:10:26.476Z,13.50
2018-07-08T03:11:47.977Z,13.53
2018-07-08T03:15:29.814Z,13.48
2018-07-08T03:16:50.826Z,13.50
2018-07-08T03:17:29.825Z,13.47
2018-07-08T03:18:30.320Z,13.48
2018-07-08T03:19:30.320Z,13.44
2018-07-08T03:20:51.320Z,13.41
2018-07-08T03:21:30.320Z,13.39
2018-07-08T03:25:33.813Z,13.19
2018-07-08T03:26:33.821Z,13.12
2018-07-08T03:27:33.824Z,13.07
2018-07-08T03:28:37.752Z,12.99
2018-07-08T03:29:34.320Z,12.99
2018-07-08T03:30:34.325Z,12.98
2018-07-08T03:31:34.327Z,12.95
2018-07-08T03:32:34.821Z,12.88
2018-07-08T03:33:34.896Z,12.84
2018-07-08T03:34:34.822Z,12.81
2018-07-08T03:35:34.820Z,12.81
2018-07-08T03:38:06.564Z,12.67
2018-07-08T03:39:20.580Z,12.80
2018-07-08T03:40:06.567Z,12.84
2018-07-08T03:44:30.770Z,12.81
2018-07-08T03:45:11.204Z,12.87
2018-07-08T03:46:09.771Z,12.84
2018-07-08T03:47:24.341Z,12.84
2018-07-08T03:48:24.272Z,12.98
2018-07-08T03:49:09.493Z,13.01
2018-07-08T03:53:16.617Z,12.95
2018-07-08T03:54:13.192Z,12.89
2018-07-08T03:55:13.188Z,12.94
2018-07-08T03:56:13.710Z,12.95
2018-07-08T03:57:34.707Z,12.94
2018-07-08T03:58:27.686Z,12.91
2018-07-08T03:59:13.683Z,12.81
2018-07-08T04:00:35.186Z,12.81
2018-07-08T04:01:14.183Z,12.91
2018-07-08T04:02:14.185Z,12.77
2018-07-08T04:03:16.117Z,12.79
2018-07-08T04:04:35.702Z,12.91
2018-07-08T04:05:14.684Z,12.79
2018-07-08T04:06:14.685Z,13.01
2018-07-08T04:07:14.685Z,12.88
2018-07-08T04:08:16.182Z,13.03
2018-07-08T04:09:17.198Z,12.99
2018-07-08T04:10:15.189Z,12.96
2018-07-08T04:12:46.800Z,13.24
2018-07-08T04:14:07.810Z,13.19
2018-07-08T04:15:07.849Z,13.21
2018-07-08T04:17:39.544Z,13.24
2018-07-08T04:18:40.984Z,13.24
2018-07-08T04:19:18.551Z,13.28
2018-07-08T04:22:04.320Z,13.28
2018-07-08T04:22:49.658Z,13.27
2018-07-08T04:23:50.319Z,13.21
2018-07-08T04:24:50.826Z,13.16
2018-07-08T04:25:50.057Z,13.25
2018-07-08T04:27:11.828Z,13.19
2018-07-08T04:27:50.295Z,13.21
2018-07-08T04:30:46.035Z,13.17
2018-07-08T04:31:23.043Z,13.25
2018-07-08T04:32:25.005Z,13.12
2018-07-08T04:33:23.042Z,13.16
2018-07-08T04:34:44.552Z,13.25
2018-07-08T04:35:22.765Z,13.24
2018-07-08T04:36:44.543Z,13.24
2018-07-08T04:37:23.542Z,13.31
2018-07-08T04:38:24.042Z,13.28
2018-07-08T04:39:24.995Z,13.28
2018-07-08T04:40:47.048Z,13.38
2018-07-08T04:41:24.042Z,13.41
2018-07-08T04:42:31.502Z,13.32
2018-07-08T04:43:23.601Z,13.38
2018-07-08T04:44:24.549Z,13.28
2018-07-08T04:47:19.347Z,13.28
2018-07-08T04:47:56.417Z,13.31
2018-07-08T04:48:56.419Z,13.28
2018-07-08T04:49:56.913Z,13.28
2018-07-08T04:50:56.982Z,13.28
2018-07-08T04:53:30.401Z,13.29
2018-07-08T04:54:28.403Z,13.36
2018-07-08T04:55:49.903Z,13.44
2018-07-08T04:59:33.465Z,13.53
2018-07-08T05:00:53.054Z,13.53
2018-07-08T05:01:32.009Z,13.53
2018-07-08T05:04:24.758Z,13.71
2018-07-08T05:05:03.773Z,13.81
2018-07-08T05:06:03.778Z,13.79
2018-07-08T05:07:05.238Z,13.71
2018-07-08T05:08:24.439Z,13.86
2018-07-08T05:09:04.266Z,13.88
2018-07-08T05:10:04.265Z,13.96
2018-07-08T05:11:25.262Z,13.84
2018-07-08T05:12:03.892Z,13.91
2018-07-08T05:13:06.198Z,13.94
2018-07-08T05:14:06.198Z,13.99
2018-07-08T05:15:04.766Z,14.02
2018-07-08T05:16:04.771Z,14.13
2018-07-08T05:17:04.403Z,14.12
2018-07-08T05:19:59.645Z,14.23
2018-07-08T05:20:57.652Z,14.23
2018-07-08T05:21:36.652Z,14.29
2018-07-08T05:24:08.413Z,14.48
2018-07-08T05:25:08.420Z,14.60
2018-07-08T05:26:08.425Z,14.69
2018-07-08T05:28:40.176Z,14.82
2018-07-08T05:29:40.197Z,14.85
2018-07-08T05:30:40.174Z,14.86
2018-07-08T05:31:42.674Z,15.05
2018-07-08T05:34:12.057Z,15.20
2018-07-08T05:35:13.997Z,15.37
2018-07-08T05:36:12.058Z,15.52
2018-07-08T05:37:12.058Z,15.51
2018-07-08T05:38:14.012Z,15.64
2018-07-08T05:39:16.491Z,15.58
2018-07-08T05:40:13.998Z,15.71
2018-07-08T05:41:12.567Z,15.77
2018-07-08T05:42:12.558Z,15.89
2018-07-08T05:43:13.061Z,15.95
2018-07-08T05:44:12.289Z,16.01
2018-07-08T05:45:13.064Z,15.98
2018-07-08T05:46:13.057Z,16.04
2018-07-08T05:47:36.491Z,16.07
2018-07-08T05:48:13.557Z,16.25
2018-07-08T05:49:13.559Z,16.27
2018-07-08T05:50:13.625Z,16.23
2018-07-08T05:52:45.327Z,16.47
2018-07-08T05:53:45.388Z,16.52
2018-07-08T05:54:45.334Z,16.62
2018-07-08T05:55:45.335Z,16.52
2018-07-08T05:58:17.112Z,16.67
2018-07-08T05:59:17.121Z,16.70
2018-07-08T06:00:23.621Z,16.84
2018-07-08T06:01:39.554Z,16.98
2018-07-08T06:02:23.621Z,16.99
2018-07-08T06:03:23.637Z,17.14
2018-07-08T06:04:39.175Z,17.17
2018-07-08T06:05:18.124Z,17.09
2018-07-08T06:06:39.124Z,17.20
2018-07-08T06:07:18.120Z,17.28
2018-07-08T06:09:49.158Z,17.36
2018-07-08T06:10:49.906Z,17.38
2018-07-08T06:11:49.898Z,17.39
2018-07-08T06:12:49.502Z,17.39
2018-07-08T06:14:10.598Z,17.53
2018-07-08T06:14:51.334Z,17.49
2018-07-08T06:15:50.398Z,17.53
2018-07-08T06:16:50.441Z,17.54
2018-07-08T06:19:36.142Z,17.45
2018-07-08T06:20:22.149Z,17.49
2018-07-08T06:21:22.149Z,17.60
2018-07-08T06:22:22.649Z,17.60
2018-07-08T06:25:24.471Z,17.58
2018-07-08T06:25:56.552Z,17.73
2018-07-08T06:28:47.991Z,17.74
2018-07-08T06:29:26.999Z,17.81
2018-07-08T06:30:27.005Z,17.71
2018-07-08T06:33:04.766Z,17.83
2018-07-08T06:33:58.840Z,17.86
2018-07-08T06:34:58.767Z,17.91
2018-07-08T06:35:58.765Z,17.91
2018-07-08T06:37:19.348Z,17.87
2018-07-08T06:38:21.266Z,18.01
2018-07-08T06:38:59.265Z,17.98
2018-07-08T06:39:59.266Z,18.04
2018-07-08T06:41:05.770Z,18.10
2018-07-08T06:41:59.767Z,18.14
2018-07-08T06:42:59.766Z,18.13
2018-07-08T06:43:59.768Z,18.32
2018-07-08T06:45:00.266Z,18.29
2018-07-08T06:46:00.273Z,18.38
2018-07-08T06:47:00.266Z,18.36
2018-07-08T06:48:00.267Z,18.39
2018-07-08T06:49:02.245Z,18.25
2018-07-08T06:50:03.699Z,18.23
2018-07-08T06:51:00.774Z,18.32
2018-07-08T06:52:00.784Z,18.32
2018-07-08T06:54:31.824Z,18.62
2018-07-08T06:55:33.985Z,18.59
2018-07-08T06:59:35.675Z,18.78
2018-07-08T07:03:38.619Z,18.96
2018-07-08T07:05:01.602Z,18.79
2018-07-08T07:05:38.627Z,18.83
2018-07-08T07:07:00.134Z,18.96
2018-07-08T07:07:39.126Z,18.99
2018-07-08T07:08:39.126Z,18.87
2018-07-08T07:09:39.126Z,18.90
2018-07-08T07:13:42.307Z,19.02
2018-07-08T07:14:42.319Z,19.02
2018-07-08T07:15:42.318Z,19.12
2018-07-08T07:16:42.820Z,19.23
2018-07-08T07:19:14.631Z,19.43
2018-07-08T07:20:15.696Z,19.58
2018-07-08T07:21:14.698Z,19.49
2018-07-08T07:23:46.024Z,19.52
2018-07-08T07:24:46.960Z,19.52
2018-07-08T07:25:46.963Z,19.52
2018-07-08T07:26:46.980Z,19.50
2018-07-08T07:27:46.960Z,19.64
2018-07-08T07:30:18.709Z,19.80
2018-07-08T07:31:18.715Z,19.94
2018-07-08T07:32:19.714Z,19.85
2018-07-08T07:34:50.462Z,20.02
2018-07-08T07:35:52.961Z,20.22
2018-07-08T07:36:50.469Z,20.22
2018-07-08T07:37:51.910Z,20.33
2018-07-08T07:38:50.969Z,20.37
2018-07-08T07:39:50.970Z,20.30
2018-07-08T07:41:11.970Z,20.42
2018-07-08T07:41:50.969Z,20.37
2018-07-08T07:42:51.467Z,20.38
2018-07-08T07:43:51.518Z,20.40
2018-07-08T07:44:51.467Z,20.48
2018-07-08T07:46:12.472Z,20.56
2018-07-08T07:46:51.469Z,20.51
2018-07-08T07:47:51.975Z,20.42
2018-07-08T07:49:12.975Z,20.48
2018-07-08T07:49:52.965Z,20.54
2018-07-08T07:50:51.968Z,20.57
2018-07-08T07:51:52.472Z,20.75
2018-07-08T07:52:51.698Z,20.88
2018-07-08T07:53:52.468Z,20.82
2018-07-08T07:54:52.468Z,20.79
2018-07-08T07:58:55.692Z,20.96
2018-07-08T08:01:27.659Z,21.22
2018-07-08T08:03:59.165Z,21.19
2018-07-08T08:05:20.173Z,21.27
2018-07-08T08:06:01.605Z,21.34
2018-07-08T08:07:13.673Z,21.53
2018-07-08T08:08:19.877Z,21.71
2018-07-08T08:08:59.673Z,21.79
2018-07-08T08:09:59.674Z,21.79
2018-07-08T08:12:33.420Z,21.98
2018-07-08T08:13:31.125Z,22.09
2018-07-08T08:14:31.948Z,22.15
2018-07-08T08:15:52.953Z,22.19
2018-07-08T08:16:53.940Z,22.17
2018-07-08T08:17:32.495Z,22.17
2018-07-08T08:18:32.441Z,21.89
2018-07-08T08:19:53.443Z,21.99
2018-07-08T08:20:32.443Z,21.91
2018-07-08T08:21:54.440Z,21.94
2018-07-08T08:22:53.942Z,22.08
2018-07-08T08:23:32.943Z,21.89
2018-07-08T08:24:53.942Z,21.86
2018-07-08T08:25:53.943Z,21.94
2018-07-08T08:26:55.916Z,22.01
2018-07-08T08:27:57.375Z,22.12
2018-07-08T08:28:54.441Z,22.12
2018-07-08T08:29:33.442Z,22.19
2018-07-08T08:30:54.971Z,22.30
2018-07-08T08:31:54.942Z,22.39
2018-07-08T08:32:54.952Z,22.33
2018-07-08T08:33:54.943Z,22.38
2018-07-08T08:34:55.442Z,22.48
2018-07-08T08:35:34.443Z,22.49
2018-07-08T08:38:26.997Z,22.82
2018-07-08T08:39:05.984Z,22.76
2018-07-08T08:40:27.981Z,22.72
2018-07-08T08:41:27.484Z,22.70
2018-07-08T08:42:33.484Z,22.64
2018-07-08T08:43:06.488Z,22.63
2018-07-08T08:44:06.485Z,22.75
2018-07-08T08:45:06.985Z,22.74
2018-07-08T08:46:06.990Z,22.59
2018-07-08T08:49:01.617Z,22.56
2018-07-08T08:49:39.685Z,22.56
2018-07-08T08:50:39.684Z,22.66
2018-07-08T08:51:40.189Z,22.61
2018-07-08T08:52:54.188Z,22.75
2018-07-08T08:54:01.185Z,22.81
2018-07-08T08:54:40.185Z,22.86
2018-07-08T08:57:34.903Z,22.79
2018-07-08T08:58:11.948Z,22.82
2018-07-08T08:59:12.450Z,22.89
2018-07-08T09:00:12.451Z,23.07
2018-07-08T09:01:12.447Z,23.21
2018-07-08T09:02:12.447Z,23.12
2018-07-08T09:03:12.947Z,23.35
2018-07-08T09:05:44.354Z,23.11
2018-07-08T09:09:47.348Z,23.60
2018-07-08T09:10:47.396Z,23.64
2018-07-08T09:11:47.349Z,23.53
2018-07-08T09:12:49.859Z,23.26
2018-07-08T09:15:19.736Z,23.44
2018-07-08T09:16:21.179Z,23.53
2018-07-08T09:17:19.788Z,23.57
2018-07-08T09:18:21.700Z,23.54
2018-07-08T09:19:21.672Z,23.71
2018-07-08T09:20:20.240Z,23.81
2018-07-08T09:21:20.245Z,23.87
2018-07-08T09:22:20.740Z,23.74
2018-07-08T09:23:19.969Z,23.84
2018-07-08T09:24:41.745Z,23.84
2018-07-08T09:25:20.741Z,23.69
2018-07-08T09:26:22.239Z,23.72
2018-07-08T09:27:21.243Z,23.72
2018-07-08T09:28:35.249Z,23.77
2018-07-08T09:29:21.248Z,23.86
2018-07-08T09:30:21.741Z,23.86
2018-07-08T09:31:20.992Z,23.99
2018-07-08T09:32:21.742Z,23.74
2018-07-08T09:33:21.740Z,23.71
2018-07-08T09:35:53.512Z,23.47
2018-07-08T09:38:25.049Z,23.34
2018-07-08T09:39:25.061Z,23.49
2018-07-08T09:40:25.053Z,23.53
2018-07-08T09:42:56.097Z,23.67
2018-07-08T09:44:17.826Z,23.71
2018-07-08T09:44:56.824Z,23.86
2018-07-08T09:46:01.790Z,24.08
2018-07-08T09:47:18.321Z,24.30
2018-07-08T09:48:00.256Z,24.29
2018-07-08T09:48:57.324Z,24.36
2018-07-08T09:50:18.824Z,24.27
2018-07-08T09:50:57.827Z,24.29
2018-07-08T09:51:57.831Z,24.39
2018-07-08T09:52:57.826Z,24.51
2018-07-08T09:55:29.602Z,24.53
2018-07-08T09:56:31.094Z,24.71
2018-07-08T09:57:32.541Z,24.64
2018-07-08T09:58:30.109Z,24.82
2018-07-08T09:59:30.108Z,24.64
2018-07-08T10:03:35.560Z,24.68
2018-07-08T10:04:33.585Z,24.44
2018-07-08T10:05:33.568Z,24.42
2018-07-08T10:06:34.498Z,24.30
2018-07-08T10:07:34.066Z,24.24
2018-07-08T10:08:56.498Z,24.18
2018-07-08T10:09:55.066Z,23.99
2018-07-08T10:10:55.105Z,24.00
2018-07-08T10:11:55.566Z,24.16
2018-07-08T10:12:55.568Z,24.24
2018-07-08T10:13:33.928Z,24.33
2018-07-08T10:14:34.569Z,24.36
2018-07-08T10:15:56.067Z,24.23
2018-07-08T10:16:35.073Z,24.31
2018-07-08T10:17:35.108Z,24.41
2018-07-08T10:18:35.067Z,24.46
2018-07-08T10:19:35.646Z,24.46
2018-07-08T10:20:35.566Z,24.49
2018-07-08T10:21:56.567Z,24.56
2018-07-08T10:22:35.566Z,24.64
2018-07-08T10:23:35.172Z,24.64
2018-07-08T10:24:36.066Z,24.67
2018-07-08T10:25:36.067Z,24.55
2018-07-08T10:26:57.068Z,24.61
2018-07-08T10:27:36.567Z,24.64
2018-07-08T10:28:35.802Z,24.71
2018-07-08T10:29:36.568Z,24.97
2018-07-08T10:30:36.569Z,25.02
2018-07-08T10:31:59.533Z,25.02
2018-07-08T10:32:37.071Z,25.02
2018-07-08T10:33:37.079Z,25.08
2018-07-08T10:34:37.068Z,25.24
2018-07-08T10:37:09.333Z,25.29
2018-07-08T10:38:31.273Z,25.24
2018-07-08T10:39:09.340Z,25.48
2018-07-08T10:40:09.849Z,25.39
2018-07-08T10:41:30.848Z,25.45
2018-07-08T10:42:11.850Z,25.39
2018-07-08T10:43:23.891Z,25.38
2018-07-08T10:50:16.221Z,25.54
2018-07-08T10:52:54.666Z,25.75
2018-07-08T10:53:47.732Z,25.69
2018-07-08T10:54:47.738Z,25.56
2018-07-08T10:56:02.235Z,25.38
2018-07-08T10:56:48.233Z,25.45
2018-07-08T10:57:48.233Z,25.34
2018-07-08T10:58:48.234Z,25.35
2018-07-08T11:01:41.022Z,25.53
2018-07-08T11:03:51.522Z,25.78
2018-07-08T11:04:51.529Z,25.93
2018-07-08T11:05:51.523Z,25.93
2018-07-08T11:06:58.024Z,26.04
2018-07-08T11:07:52.032Z,26.11
2018-07-08T11:08:52.028Z,26.11
2018-07-08T11:09:52.025Z,26.16
2018-07-08T11:12:23.801Z,26.08
2018-07-08T11:13:23.808Z,25.79
2018-07-08T11:14:23.816Z,25.63
2018-07-08T11:16:57.613Z,25.86
2018-07-08T11:18:15.958Z,25.82
2018-07-08T11:20:27.741Z,25.94
2018-07-08T11:21:27.734Z,26.04
2018-07-08T11:22:27.733Z,26.16
2018-07-08T11:23:49.732Z,26.31
2018-07-08T11:24:28.235Z,26.31
2018-07-08T11:28:30.891Z,26.39
2018-07-08T11:29:52.600Z,26.50
2018-07-08T11:30:52.600Z,26.50
2018-07-08T11:33:17.865Z,26.84
2018-07-08T11:34:24.865Z,26.97
2018-07-08T11:35:25.798Z,27.01
2018-07-08T11:36:25.365Z,27.21
2018-07-08T11:37:05.364Z,27.11
2018-07-08T11:38:04.366Z,27.24
2018-07-08T11:39:04.374Z,27.12
2018-07-08T11:41:57.127Z,27.23
2018-07-08T11:44:34.649Z,26.88
2018-07-08T11:45:07.658Z,26.73
2018-07-08T11:46:07.664Z,26.88
2018-07-08T11:47:09.596Z,26.81
2018-07-08T11:48:08.157Z,26.83
2018-07-08T11:49:08.157Z,26.88
2018-07-08T11:50:08.157Z,26.91
2018-07-08T11:51:08.658Z,27.03
2018-07-08T11:52:10.093Z,27.11
2018-07-08T11:53:10.089Z,27.23
2018-07-08T11:54:08.658Z,27.40
2018-07-08T11:55:31.174Z,27.48
2018-07-08T11:56:30.160Z,27.63
2018-07-08T11:57:10.155Z,27.65
2018-07-08T11:58:10.643Z,27.93
2018-07-08T11:59:30.658Z,27.96
2018-07-08T12:02:02.044Z,28.13
2018-07-08T12:03:02.051Z,27.78
2018-07-08T12:03:41.051Z,27.83
2018-07-08T12:04:41.573Z,27.83
2018-07-08T12:06:02.551Z,27.80
2018-07-08T12:06:42.560Z,27.93
2018-07-08T12:07:41.552Z,27.84
2018-07-08T12:09:04.527Z,27.96
2018-07-08T12:11:13.412Z,27.98
2018-07-08T12:12:13.423Z,28.08
2018-07-08T12:13:27.929Z,28.17
2018-07-08T12:16:05.456Z,28.27
2018-07-08T12:16:45.206Z,28.30
2018-07-08T12:17:45.206Z,28.17
2018-07-08T12:18:49.139Z,28.25
2018-07-08T12:19:45.707Z,28.11
2018-07-08T12:20:47.184Z,28.24
2018-07-08T12:21:45.750Z,28.21
2018-07-08T12:25:51.294Z,28.40
2018-07-08T12:27:09.860Z,28.58
2018-07-08T12:27:48.863Z,28.57
2018-07-08T12:29:10.362Z,28.40
2018-07-08T12:30:11.362Z,28.55
2018-07-08T12:30:49.360Z,28.32
2018-07-08T12:33:35.498Z,28.14
2018-07-08T12:34:27.504Z,28.32
2018-07-08T12:35:20.885Z,28.54
2018-07-08T12:36:21.505Z,28.58
2018-07-08T12:37:22.005Z,28.50
2018-07-08T12:38:22.004Z,28.57
2018-07-08T12:39:22.005Z,28.64
2018-07-08T12:40:22.015Z,28.58
2018-07-08T12:42:53.771Z,28.65
2018-07-08T12:43:53.775Z,28.58
2018-07-08T12:44:53.866Z,28.46
2018-07-08T12:45:56.279Z,28.69
2018-07-08T12:47:15.278Z,28.82
2018-07-08T12:47:54.284Z,28.74
2018-07-08T12:48:54.290Z,28.82
2018-07-08T12:49:54.776Z,29.10
2018-07-08T12:51:21.824Z,29.00
2018-07-08T12:51:54.777Z,28.98
2018-07-08T12:52:54.777Z,29.08
2018-07-08T12:55:26.550Z,29.18
2018-07-08T12:56:26.554Z,29.18
2018-07-08T12:57:26.556Z,29.30
2018-07-08T12:58:47.283Z,29.41
2018-07-08T12:59:30.016Z,29.60
2018-07-08T13:00:48.066Z,29.82
2018-07-08T13:01:27.056Z,30.03
2018-07-08T13:02:27.557Z,30.08
2018-07-08T13:03:50.030Z,30.30
2018-07-08T13:04:26.877Z,30.10
2018-07-08T13:05:26.984Z,30.00
2018-07-08T13:08:05.195Z,30.30
2018-07-08T13:08:59.281Z,30.44
2018-07-08T13:10:01.238Z,30.48
2018-07-08T13:11:20.763Z,30.72
2018-07-08T13:12:20.781Z,30.67
2018-07-08T13:13:00.739Z,30.67
2018-07-08T13:13:59.763Z,30.81
2018-07-08T13:15:00.263Z,30.98
2018-07-08T13:16:00.263Z,30.88
2018-07-08T13:17:02.275Z,30.97
2018-07-08T13:18:00.271Z,31.04
2018-07-08T13:19:23.199Z,31.01
2018-07-08T13:20:00.784Z,31.04
2018-07-08T13:21:00.765Z,30.96
2018-07-08T13:22:00.295Z,30.94
2018-07-08T13:23:01.265Z,30.81
2018-07-08T13:24:01.264Z,30.88
2018-07-08T13:25:01.266Z,30.70
2018-07-08T13:26:01.264Z,30.86
2018-07-08T13:27:01.763Z,30.82
2018-07-08T13:28:01.771Z,31.04
2018-07-08T13:29:01.765Z,31.01
2018-07-08T13:30:01.765Z,30.59
2018-07-08T13:35:36.451Z,30.73
2018-07-08T13:36:36.456Z,30.88
2018-07-08T13:37:36.460Z,31.04
2018-07-08T13:40:08.235Z,31.54
2018-07-08T13:41:08.239Z,31.38
2018-07-08T13:42:08.746Z,31.28
2018-07-08T13:43:08.740Z,31.35
2018-07-08T13:47:11.594Z,31.87
2018-07-08T13:48:33.589Z,32.02
2018-07-08T13:49:11.594Z,32.25
2018-07-08T13:52:04.367Z,32.77
2018-07-08T13:52:43.380Z,32.59
2018-07-08T13:54:05.810Z,32.25
2018-07-08T13:56:15.140Z,32.13
2018-07-08T13:57:15.149Z,32.31
2018-07-08T13:58:29.637Z,32.14
2018-07-08T14:00:46.910Z,32.10
2018-07-08T14:03:24.427Z,32.24
2018-07-08T14:04:19.366Z,32.47
2018-07-08T14:05:18.434Z,32.49
2018-07-08T14:06:39.943Z,32.40
2018-07-08T14:07:18.934Z,32.54
2018-07-08T14:08:39.935Z,32.63
2018-07-08T14:09:18.965Z,32.78
2018-07-08T14:11:50.702Z,32.91
2018-07-08T14:12:50.709Z,33.28
2018-07-08T14:15:22.406Z,33.40
2018-07-08T14:18:14.930Z,33.70
2018-07-08T14:18:55.383Z,33.55
2018-07-08T14:20:14.978Z,33.28
2018-07-08T14:22:47.176Z,33.35
2018-07-08T14:23:29.182Z,33.05
2018-07-08T14:27:50.177Z,33.33
2018-07-08T14:28:31.184Z,33.50
2018-07-08T14:29:50.179Z,33.71
2018-07-08T14:35:03.847Z,34.15
2018-07-08T14:36:03.862Z,34.24
2018-07-08T14:37:05.817Z,34.01
2018-07-08T14:38:04.422Z,33.78
2018-07-08T14:39:05.306Z,33.81
2018-07-08T14:40:04.355Z,33.87
2018-07-08T14:41:25.356Z,33.86
2018-07-08T14:43:35.398Z,33.49
2018-07-08T14:44:36.183Z,33.59
2018-07-08T14:45:36.141Z,33.71
2018-07-08T14:46:36.644Z,33.93
2018-07-08T14:47:37.573Z,33.75
2018-07-08T14:48:35.996Z,33.87
2018-07-08T14:49:36.640Z,33.74
2018-07-08T14:50:37.141Z,33.71
2018-07-08T14:51:58.141Z,33.70
2018-07-08T14:52:37.173Z,33.66
2018-07-08T14:53:36.644Z,33.89
2018-07-08T14:58:01.391Z,33.89
2018-07-08T15:00:32.909Z,33.24
2018-07-08T15:01:11.930Z,33.12
2018-07-08T15:02:32.933Z,32.76
2018-07-08T15:03:12.416Z,32.61
2018-07-08T15:05:43.820Z,32.81
2018-07-08T15:06:43.827Z,32.83
2018-07-08T15:07:43.828Z,32.40
2018-07-08T15:08:46.328Z,31.99
2018-07-08T15:09:44.352Z,31.88
2018-07-08T15:10:44.328Z,31.45
2018-07-08T15:11:44.374Z,31.22
2018-07-08T15:14:16.151Z,31.10
2018-07-08T15:15:16.154Z,30.94
2018-07-08T15:16:16.181Z,31.05
2018-07-08T15:17:16.655Z,31.23
2018-07-08T15:18:16.662Z,31.40
2018-07-08T15:19:16.686Z,31.59
2018-07-08T15:20:37.657Z,31.62
2018-07-08T15:26:14.103Z,30.83
2018-07-08T15:26:54.647Z,30.96
2018-07-08T15:27:58.146Z,30.28
2018-07-08T15:29:13.148Z,30.37
2018-07-08T15:29:52.143Z,30.48
2018-07-08T15:30:52.151Z,30.75
2018-07-08T15:31:52.652Z,30.79
2018-07-08T15:33:19.645Z,30.68
2018-07-08T15:33:52.645Z,30.66
2018-07-08T15:34:59.144Z,30.72
2018-07-08T15:36:14.226Z,30.81
2018-07-08T15:36:53.146Z,30.94
2018-07-08T15:37:53.146Z,30.98
2018-07-08T15:38:52.639Z,30.93
2018-07-08T15:39:53.647Z,30.85
2018-07-08T15:40:53.646Z,30.70
2018-07-08T15:41:53.646Z,30.86
2018-07-08T15:42:53.645Z,30.82
2018-07-08T15:44:15.146Z,30.30
2018-07-08T15:44:54.149Z,30.38
2018-07-08T15:45:54.147Z,30.28
2018-07-08T15:46:54.244Z,30.26
2018-07-08T15:49:46.902Z,30.46
2018-07-08T15:50:25.874Z,30.51
2018-07-08T15:51:28.373Z,30.44
2018-07-08T15:52:25.483Z,30.53
2018-07-08T15:53:26.373Z,30.63
2018-07-08T15:54:26.389Z,30.57
2018-07-08T15:55:26.374Z,30.44
2018-07-08T15:56:28.317Z,30.59
2018-07-08T15:57:26.874Z,30.57
2018-07-08T15:58:26.874Z,30.67
2018-07-08T15:59:27.902Z,30.67
2018-07-08T16:01:58.436Z,30.75
2018-07-08T16:03:01.154Z,30.68
2018-07-08T16:03:59.162Z,30.59
2018-07-08T16:05:22.658Z,30.67
2018-07-08T16:05:59.659Z,30.70
2018-07-08T16:06:59.653Z,30.61
2018-07-08T16:08:02.162Z,30.60
2018-07-08T16:09:00.161Z,30.56
2018-07-08T16:10:00.154Z,30.45
2018-07-08T16:11:00.591Z,30.13
2018-07-08T16:12:00.167Z,30.11
2018-07-08T16:13:00.669Z,30.15
2018-07-08T16:14:02.086Z,30.11
2018-07-08T16:15:21.654Z,30.18
2018-07-08T16:16:00.654Z,30.13
2018-07-08T16:18:32.596Z,30.07
2018-07-08T16:19:32.435Z,30.04
2018-07-08T16:20:32.436Z,29.92
2018-07-08T16:22:33.869Z,29.89
2018-07-08T16:23:32.938Z,29.69
2018-07-08T16:24:32.934Z,29.62
2018-07-08T16:25:34.369Z,29.54
2018-07-08T16:28:04.652Z,29.62
2018-07-08T16:29:04.654Z,29.57
2018-07-08T16:30:07.152Z,29.70
2018-07-08T16:31:06.091Z,29.73
2018-07-08T16:32:04.333Z,29.74
2018-07-08T16:33:28.636Z,29.57
2018-07-08T16:34:05.152Z,29.44
2018-07-08T16:35:07.084Z,29.35
2018-07-08T16:36:05.653Z,29.29